Time;durP1;ratioP1;P1;durP2;ratioP2;P2;SDS_P1;SDS_P2;PMS_P1;PMS_P2;Temp;Humidity;BMP_temperature;BMP_pressure;BME280_temperature;BME280_humidity;BME280_pressure;Samples;Min_cycle;Max_cycle;Signal;HPM_P1;HPM_P2
2023/03/26 00:01:12;;;;;;;2.10;1.30;;;10.20;53.70;;;;;;20645;6748;302190;-70
2023/03/26 00:03:52;;;;;;;2.03;1.53;;;10.60;53.10;;;;;;20621;6748;307548;-71
2023/03/26 00:06:23;;;;;;;1.33;1.17;;;10.90;52.10;;;;;;20818;6748;117177;-70
2023/03/26 00:08:59;;;;;;;2.43;1.73;;;10.80;52.00;;;;;;20635;6748;278342;-70
2023/03/26 00:11:34;;;;;;;2.10;1.40;;;10.80;53.00;;;;;;20800;6765;118230;-70
2023/03/26 00:14:12;;;;;;;2.47;1.52;;;10.60;52.70;;;;;;20597;6750;326397;-70
2023/03/26 00:16:46;;;;;;;2.17;1.40;;;10.70;52.80;;;;;;20637;6748;301404;-70
2023/03/26 00:19:21;;;;;;;1.23;0.90;;;11.00;52.10;;;;;;20852;6748;117293;-70
2023/03/26 00:21:59;;;;;;;1.53;0.90;;;10.80;52.10;;;;;;20879;6740;117640;-70
2023/03/26 00:24:32;;;;;;;1.70;1.60;;;10.50;52.60;;;;;;20772;6748;123234;-70
2023/03/26 00:27:09;;;;;;;2.75;1.45;;;10.20;53.10;;;;;;20585;6763;308389;-70
2023/03/26 00:29:47;;;;;;;1.63;1.53;;;10.40;54.00;;;;;;20801;6763;117215;-70
2023/03/26 00:32:20;;;;;;;2.08;1.40;;;10.70;54.00;;;;;;20599;6755;303890;-70
2023/03/26 00:34:56;;;;;;;2.40;1.40;;;10.70;54.00;;;;;;20565;6733;306265;-70
2023/03/26 00:37:36;;;;;;;1.40;1.27;;;11.10;53.70;;;;;;20802;6763;119279;-73
2023/03/26 00:40:09;;;;;;;1.80;1.20;;;11.00;52.70;;;;;;20830;6748;117037;-73
2023/03/26 00:42:51;;;;;;;2.53;1.73;;;10.70;52.90;;;;;;20632;6747;281815;-72
2023/03/26 00:45:29;;;;;;;1.73;1.40;;;10.80;53.00;;;;;;20518;6748;313066;-73
2023/03/26 00:47:56;;;;;;;2.30;1.60;;;11.10;52.30;;;;;;20697;6733;330435;-73
2023/03/26 00:50:32;;;;;;;2.73;1.40;;;11.30;51.50;;;;;;20671;6733;277623;-72
2023/03/26 00:53:10;;;;;;;2.23;1.50;;;11.60;50.70;;;;;;20685;6733;311410;-73
2023/03/26 00:55:44;;;;;;;2.93;1.40;;;11.60;50.70;;;;;;20700;6748;117408;-72
2023/03/26 00:58:21;;;;;;;2.87;1.60;;;11.30;50.80;;;;;;20876;6733;120295;-72
2023/03/26 01:00:58;;;;;;;1.03;1.03;;;10.90;51.50;;;;;;20895;6733;119853;-72
2023/03/26 01:03:34;;;;;;;2.67;1.20;;;10.60;52.80;;;;;;20678;6736;340391;-72
2023/03/26 01:06:10;;;;;;;2.87;1.37;;;10.70;52.10;;;;;;20648;6813;124150;-75
2023/03/26 01:08:48;;;;;;;3.87;1.60;;;10.60;51.90;;;;;;20636;6748;305470;-72
2023/03/26 01:11:23;;;;;;;3.80;1.23;;;10.80;51.70;;;;;;20814;6763;118016;-73
2023/03/26 01:14:09;;;;;;;3.00;1.30;;;10.70;51.60;;;;;;20833;6748;117601;-73
2023/03/26 01:16:50;;;;;;;2.57;1.10;;;10.20;51.80;;;;;;20810;6803;117345;-74
2023/03/26 01:19:32;;;;;;;3.30;1.67;;;10.20;52.30;;;;;;20648;6743;277225;-74
2023/03/26 01:22:08;;;;;;;3.07;1.60;;;10.40;52.70;;;;;;20646;6743;277455;-74
2023/03/26 01:24:42;;;;;;;3.87;1.70;;;10.70;52.40;;;;;;20575;6743;313054;-74
2023/03/26 01:27:41;;;;;;;2.67;1.55;;;11.00;52.10;;;;;;20687;6733;335183;-74
2023/03/26 01:30:36;;;;;;;2.90;1.80;;;11.20;51.90;;;;;;20634;6740;306732;-76
2023/03/26 01:33:37;;;;;;;2.37;1.60;;;11.30;51.50;;;;;;20683;6733;278142;-77
2023/03/26 01:36:26;;;;;;;2.37;1.60;;;11.40;51.40;;;;;;20632;6811;117471;-73
2023/03/26 01:39:18;;;;;;;2.43;1.33;;;11.00;51.60;;;;;;20552;6821;117521;-74
2023/03/26 01:41:54;;;;;;;1.67;1.20;;;10.50;52.20;;;;;;20800;6763;117250;-73
2023/03/26 01:44:39;;;;;;;2.87;1.23;;;10.20;52.80;;;;;;20772;6748;120238;-73
2023/03/26 01:47:15;;;;;;;2.13;1.40;;;10.00;53.30;;;;;;20521;6794;303826;-73
2023/03/26 01:49:51;;;;;;;2.15;1.30;;;10.60;52.80;;;;;;20547;6781;324198;-71
2023/03/26 01:52:27;;;;;;;2.83;1.47;;;10.50;52.90;;;;;;20545;6779;277776;-73
2023/03/26 01:55:03;;;;;;;3.35;1.40;;;11.10;51.50;;;;;;20561;6744;341860;-73
2023/03/26 01:58:12;;;;;;;2.90;1.55;;;11.10;51.50;;;;;;20663;6744;310966;-73
2023/03/26 02:00:48;;;;;;;2.15;1.60;;;11.20;51.10;;;;;;20606;6759;277690;-73
2023/03/26 02:03:27;;;;;;;3.60;1.90;;;11.40;50.70;;;;;;20614;6758;278052;-73
2023/03/26 02:06:10;;;;;;;4.23;1.30;;;11.40;50.70;;;;;;20663;6754;120041;-73
2023/03/26 02:08:45;;;;;;;2.20;1.80;;;11.10;50.80;;;;;;20585;6764;308640;-73
2023/03/26 02:11:20;;;;;;;2.40;1.50;;;11.10;50.90;;;;;;20621;6755;305361;-73
2023/03/26 02:13:56;;;;;;;3.33;1.60;;;11.20;50.60;;;;;;20844;6744;117218;-73
2023/03/26 02:16:32;;;;;;;2.40;1.40;;;11.00;50.70;;;;;;20841;6748;123643;-73
2023/03/26 02:19:14;;;;;;;3.77;1.37;;;10.60;51.30;;;;;;20839;6748;117676;-73
2023/03/26 02:21:44;;;;;;;2.43;1.27;;;10.40;51.90;;;;;;20879;6740;117088;-73
2023/03/26 02:24:18;;;;;;;2.63;1.10;;;10.20;52.20;;;;;;20801;6748;120137;-73
2023/03/26 02:27:51;;;;;;;1.53;1.17;;;10.00;52.50;;;;;;20856;6748;117728;-74
2023/03/26 02:30:32;;;;;;;1.57;1.20;;;9.80;53.70;;;;;;20858;6740;117424;-74
2023/03/26 02:33:02;;;;;;;3.13;1.27;;;9.70;53.90;;;;;;20850;6748;118011;-73
2023/03/26 02:35:39;;;;;;;2.55;1.60;;;9.90;55.00;;;;;;20527;6740;284073;-74
2023/03/26 02:38:14;;;;;;;2.50;1.37;;;9.90;54.30;;;;;;20830;6748;117235;-74
2023/03/26 02:40:50;;;;;;;2.45;1.40;;;10.00;52.80;;;;;;20636;6748;306731;-74
2023/03/26 02:43:25;;;;;;;2.40;1.40;;;10.20;52.70;;;;;;20656;6740;307500;-73
2023/03/26 02:46:02;;;;;;;1.27;1.13;;;10.60;51.90;;;;;;20685;6748;117394;-73
2023/03/26 02:48:41;;;;;;;3.23;1.50;;;10.60;51.70;;;;;;20572;6765;307797;-72
2023/03/26 02:51:17;;;;;;;3.75;1.55;;;10.70;51.50;;;;;;20507;6792;309147;-72
2023/03/26 02:53:52;;;;;;;3.35;1.60;;;11.00;51.10;;;;;;20593;6760;306389;-73
2023/03/26 02:56:25;;;;;;;2.50;1.27;;;11.00;50.40;;;;;;20805;6755;117544;-73
2023/03/26 02:59:01;;;;;;;1.97;1.53;;;11.00;50.40;;;;;;20905;6733;117069;-73
2023/03/26 03:01:41;;;;;;;2.13;1.27;;;10.70;50.80;;;;;;20879;6732;117448;-73
2023/03/26 03:04:12;;;;;;;2.17;1.60;;;10.50;51.40;;;;;;20810;6748;117369;-73
2023/03/26 03:06:51;;;;;;;7.87;4.40;;;10.30;51.70;;;;;;20879;6740;122892;-73
2023/03/26 03:09:25;;;;;;;4.23;2.87;;;10.10;51.80;;;;;;20548;6748;307128;-74
2023/03/26 03:12:00;;;;;;;5.20;2.57;;;10.30;51.60;;;;;;20860;6748;117154;-74
2023/03/26 03:14:39;;;;;;;4.73;1.73;;;10.20;51.60;;;;;;20774;6748;119465;-73
2023/03/26 03:17:14;;;;;;;1.90;1.40;;;10.20;51.60;;;;;;20852;6748;117029;-76
2023/03/26 03:19:53;;;;;;;2.57;1.50;;;10.30;52.30;;;;;;20642;6748;280812;-74
2023/03/26 03:22:26;;;;;;;2.13;1.43;;;10.20;52.20;;;;;;20844;6746;118321;-73
2023/03/26 03:25:01;;;;;;;4.83;1.70;;;10.30;52.00;;;;;;20716;6761;118106;-73
2023/03/26 03:27:38;;;;;;;4.30;1.98;;;10.10;52.10;;;;;;20638;6745;306382;-75
2023/03/26 03:30:13;;;;;;;2.50;1.50;;;10.30;52.00;;;;;;20823;6748;117132;-75
2023/03/26 03:32:48;;;;;;;1.90;1.47;;;10.30;51.70;;;;;;20885;6740;117595;-73
2023/03/26 03:35:24;;;;;;;2.50;1.53;;;10.10;52.10;;;;;;20697;6748;117510;-76
2023/03/26 03:37:59;;;;;;;3.30;1.87;;;10.00;52.30;;;;;;20679;6733;303252;-75
2023/03/26 03:40:35;;;;;;;2.00;1.40;;;10.30;52.20;;;;;;20840;6748;117225;-73
2023/03/26 03:43:11;;;;;;;2.73;1.57;;;10.20;52.00;;;;;;20852;6748;117762;-78
2023/03/26 03:45:47;;;;;;;1.90;1.30;;;10.10;51.90;;;;;;20630;6772;118044;-73
2023/03/26 03:48:22;;;;;;;2.92;1.77;;;10.00;52.10;;;;;;20590;6748;307135;-75
2023/03/26 03:50:58;;;;;;;2.47;1.50;;;10.20;52.30;;;;;;20844;6748;119595;-76
2023/03/26 03:53:35;;;;;;;3.90;1.67;;;10.30;52.00;;;;;;20630;6748;278173;-73
2023/03/26 03:56:09;;;;;;;2.53;1.47;;;10.50;52.00;;;;;;20668;6804;121279;-73
2023/03/26 03:58:50;;;;;;;3.03;1.62;;;10.40;51.80;;;;;;20646;6733;338632;-72
2023/03/26 04:01:21;;;;;;;2.33;1.33;;;10.60;51.90;;;;;;20824;6748;118222;-74
2023/03/26 04:03:57;;;;;;;3.93;1.60;;;10.60;51.80;;;;;;20856;6733;120705;-72
2023/03/26 04:06:33;;;;;;;2.53;1.50;;;10.40;52.20;;;;;;20855;6748;119665;-72
2023/03/26 04:09:09;;;;;;;4.63;1.73;;;10.20;52.40;;;;;;20818;6748;116308;-73
2023/03/26 04:11:44;;;;;;;2.37;1.45;;;10.00;52.60;;;;;;20682;6748;336246;-72
2023/03/26 04:14:23;;;;;;;4.27;1.63;;;10.30;52.40;;;;;;20780;6747;118520;-72
2023/03/26 04:16:55;;;;;;;3.03;1.33;;;10.30;52.00;;;;;;20742;6779;119527;-72
2023/03/26 04:19:36;;;;;;;2.87;1.80;;;10.20;52.10;;;;;;20657;6739;290690;-72
2023/03/26 04:22:08;;;;;;;2.33;1.60;;;10.40;52.20;;;;;;20844;6748;120208;-72
2023/03/26 04:24:43;;;;;;;5.83;1.83;;;10.40;51.90;;;;;;20789;6740;117539;-72
2023/03/26 04:27:20;;;;;;;2.73;1.83;;;10.00;52.30;;;;;;20793;6763;120090;-72
2023/03/26 04:29:57;;;;;;;2.53;1.80;;;10.00;52.30;;;;;;20609;6748;278933;-72
2023/03/26 04:32:33;;;;;;;4.27;1.80;;;10.20;52.90;;;;;;20610;6745;288561;-71
2023/03/26 04:35:07;;;;;;;3.67;1.70;;;10.70;51.80;;;;;;20513;6745;326300;-72
2023/03/26 04:37:43;;;;;;;3.27;1.47;;;11.00;51.20;;;;;;20793;6765;116501;-72
2023/03/26 04:40:19;;;;;;;4.87;2.00;;;10.90;51.10;;;;;;20787;6763;117655;-73
2023/03/26 04:42:58;;;;;;;4.28;1.80;;;10.70;52.10;;;;;;20640;6750;332624;-69
2023/03/26 04:45:36;;;;;;;3.33;1.70;;;10.70;51.50;;;;;;20491;6750;309483;-69
2023/03/26 04:48:07;;;;;;;1.57;1.47;;;11.00;51.50;;;;;;20830;6747;116953;-70
2023/03/26 04:50:42;;;;;;;2.50;1.62;;;10.90;51.40;;;;;;20602;6747;336066;-69
2023/03/26 04:53:18;;;;;;;4.53;1.90;;;11.00;51.50;;;;;;20627;6747;306689;-69
2023/03/26 04:56:23;;;;;;;2.53;1.53;;;11.30;50.60;;;;;;20683;6747;117418;-70
2023/03/26 04:58:58;;;;;;;3.47;1.73;;;11.20;50.50;;;;;;20683;6733;288767;-74
2023/03/26 05:01:36;;;;;;;3.53;1.60;;;11.10;50.60;;;;;;20841;6748;117276;-71
2023/03/26 05:04:16;;;;;;;4.65;1.95;;;11.10;50.60;;;;;;20602;6748;281304;-71
2023/03/26 05:06:46;;;;;;;2.63;1.80;;;11.20;50.40;;;;;;20841;6751;119942;-71
2023/03/26 05:09:21;;;;;;;5.20;2.00;;;11.00;50.20;;;;;;20628;6748;311687;-71
2023/03/26 05:11:57;;;;;;;2.80;1.70;;;11.10;49.60;;;;;;20628;6750;292774;-71
2023/03/26 05:14:36;;;;;;;2.87;1.80;;;11.40;49.30;;;;;;20766;6748;121843;-70
2023/03/26 05:17:09;;;;;;;3.30;1.70;;;11.20;49.30;;;;;;20613;6752;336712;-71
2023/03/26 05:19:45;;;;;;;4.57;2.28;;;11.30;49.40;;;;;;20634;6748;311138;-70
2023/03/26 05:22:19;;;;;;;3.53;1.80;;;11.50;49.30;;;;;;20886;6733;117122;-70
2023/03/26 05:24:55;;;;;;;2.37;1.47;;;11.30;49.20;;;;;;20764;6748;117888;-71
2023/03/26 05:27:30;;;;;;;5.37;1.80;;;11.00;49.70;;;;;;20486;6798;308352;-71
2023/03/26 05:30:06;;;;;;;3.30;1.90;;;11.10;49.30;;;;;;20592;6763;306962;-70
2023/03/26 05:32:45;;;;;;;5.43;2.30;;;11.40;48.50;;;;;;20610;6754;307218;-71
2023/03/26 05:35:17;;;;;;;4.57;2.17;;;11.50;48.40;;;;;;20490;6763;309622;-70
2023/03/26 05:37:53;;;;;;;3.53;1.67;;;11.70;48.50;;;;;;20857;6748;123476;-70
2023/03/26 05:40:28;;;;;;;2.30;1.57;;;11.40;48.40;;;;;;20847;6746;144185;-70
2023/03/26 05:43:04;;;;;;;4.17;1.53;;;11.00;49.00;;;;;;20850;6748;117144;-70
2023/03/26 05:45:43;;;;;;;4.07;1.87;;;10.70;49.60;;;;;;20455;6748;313568;-70
2023/03/26 05:48:16;;;;;;;4.27;2.10;;;11.20;49.40;;;;;;20614;6748;309852;-70
2023/03/26 05:50:52;;;;;;;3.60;2.20;;;11.20;49.40;;;;;;20603;6757;276686;-75
2023/03/26 05:53:27;;;;;;;3.50;2.30;;;11.50;48.90;;;;;;20579;6765;308247;-72
2023/03/26 05:56:03;;;;;;;3.33;2.30;;;11.70;48.50;;;;;;20630;6765;117574;-74
2023/03/26 05:58:40;;;;;;;4.00;2.40;;;11.40;48.40;;;;;;20658;6738;336180;-73
2023/03/26 06:01:15;;;;;;;3.70;2.30;;;11.50;48.00;;;;;;20841;6750;118337;-73
2023/03/26 06:03:52;;;;;;;3.27;1.97;;;11.30;48.20;;;;;;20866;6740;116798;-75
2023/03/26 06:06:28;;;;;;;2.90;1.77;;;11.00;48.70;;;;;;20778;6763;117392;-75
2023/03/26 06:09:05;;;;;;;4.53;2.30;;;10.80;49.20;;;;;;20828;6755;117051;-75
2023/03/26 06:11:40;;;;;;;2.43;2.10;;;10.60;49.40;;;;;;20895;6733;117125;-73
2023/03/26 06:14:16;;;;;;;3.40;2.00;;;10.50;49.60;;;;;;20824;6733;117955;-75
2023/03/26 06:16:51;;;;;;;2.60;1.83;;;10.40;49.80;;;;;;20626;6748;307231;-73
2023/03/26 06:19:30;;;;;;;2.57;1.53;;;10.70;49.00;;;;;;20835;6755;120675;-75
2023/03/26 06:22:03;;;;;;;3.30;1.80;;;10.70;48.80;;;;;;20818;6763;122925;-74
2023/03/26 06:24:38;;;;;;;4.12;1.85;;;10.60;49.10;;;;;;20497;6763;335497;-73
2023/03/26 06:27:15;;;;;;;1.93;1.80;;;10.80;48.70;;;;;;20788;6755;117098;-74
2023/03/26 06:29:50;;;;;;;1.80;1.43;;;10.80;48.70;;;;;;20794;6753;117167;-69
2023/03/26 06:32:26;;;;;;;1.60;1.50;;;10.70;49.00;;;;;;20775;6763;117818;-72
2023/03/26 06:35:01;;;;;;;2.77;1.40;;;10.50;49.10;;;;;;20707;6755;118316;-71
2023/03/26 06:37:37;;;;;;;4.45;1.80;;;10.40;49.30;;;;;;20563;6763;301581;-71
2023/03/26 06:40:13;;;;;;;2.90;1.60;;;10.60;48.50;;;;;;20814;6754;117098;-69
2023/03/26 06:42:48;;;;;;;3.33;1.37;;;10.70;48.30;;;;;;20803;6763;117402;-69
2023/03/26 06:45:24;;;;;;;6.23;1.77;;;10.60;48.50;;;;;;20722;6748;117448;-70
2023/03/26 06:47:59;;;;;;;2.37;1.40;;;10.50;48.90;;;;;;20861;6748;117522;-70
2023/03/26 06:50:35;;;;;;;4.23;1.70;;;10.30;49.10;;;;;;20889;6748;120072;-69
2023/03/26 06:53:10;;;;;;;3.72;1.77;;;10.20;49.30;;;;;;20696;6734;305897;-69
2023/03/26 06:55:46;;;;;;;3.23;1.50;;;10.50;50.00;;;;;;20699;6748;117923;-70
2023/03/26 06:58:22;;;;;;;2.53;2.00;;;10.50;49.60;;;;;;20781;6765;117690;-70
2023/03/26 07:00:57;;;;;;;3.67;2.03;;;10.40;49.90;;;;;;20855;6748;118127;-70
2023/03/26 07:03:33;;;;;;;3.37;2.35;;;10.30;50.10;;;;;;20645;6748;307791;-69
2023/03/26 07:06:08;;;;;;;5.37;2.40;;;10.50;50.90;;;;;;20486;6801;279300;-70
2023/03/26 07:08:44;;;;;;;4.30;2.10;;;10.90;50.60;;;;;;20627;6748;307167;-70
2023/03/26 07:11:23;;;;;;;3.40;1.67;;;11.20;50.00;;;;;;20812;6763;123997;-69
2023/03/26 07:13:55;;;;;;;5.17;1.97;;;11.20;50.00;;;;;;20828;6748;120749;-70
2023/03/26 07:16:31;;;;;;;6.03;2.33;;;10.90;50.20;;;;;;20831;6751;117136;-70
2023/03/26 07:19:06;;;;;;;8.40;6.37;;;10.70;50.60;;;;;;20893;6737;117081;-69
2023/03/26 07:21:42;;;;;;;6.03;2.60;;;10.50;50.80;;;;;;20647;6750;315882;-70
2023/03/26 07:24:19;;;;;;;5.10;1.90;;;10.70;51.20;;;;;;20792;6748;117934;-69
2023/03/26 07:26:58;;;;;;;4.20;1.80;;;10.80;50.90;;;;;;20800;6763;117828;-71
2023/03/26 07:29:43;;;;;;;2.80;1.60;;;10.60;51.00;;;;;;20830;6755;117196;-70
2023/03/26 07:32:38;;;;;;;4.37;2.23;;;10.40;51.30;;;;;;20564;6763;307106;-70
2023/03/26 07:35:35;;;;;;;5.75;2.40;;;10.60;52.30;;;;;;20499;6755;308724;-70
2023/03/26 07:38:14;;;;;;;3.83;2.10;;;11.00;52.50;;;;;;19696;7143;73895;-72
2023/03/26 07:41:12;;;;;;;3.20;2.00;;;10.80;52.00;;;;;;19656;7146;119569;-71
2023/03/26 07:43:51;;;;;;;4.75;2.33;;;10.50;52.30;;;;;;19978;6789;307622;-72
2023/03/26 07:46:24;;;;;;;4.90;2.10;;;10.70;53.80;;;;;;20580;6788;123710;-71
2023/03/26 07:49:00;;;;;;;6.60;2.63;;;10.60;53.50;;;;;;20902;6733;117881;-74
2023/03/26 07:51:35;;;;;;;4.93;2.40;;;10.40;53.50;;;;;;20648;6748;310458;-70
2023/03/26 07:54:10;;;;;;;3.70;1.87;;;10.60;54.20;;;;;;20807;6748;117111;-70
2023/03/26 07:57:06;;;;;;;4.00;2.87;;;10.50;54.00;;;;;;20828;6748;119883;-70
2023/03/26 07:59:45;;;;;;;4.72;2.53;;;10.60;55.50;;;;;;20625;6750;312191;-69
2023/03/26 08:02:41;;;;;;;5.40;2.37;;;11.00;54.80;;;;;;20616;6750;306585;-71
2023/03/26 08:05:27;;;;;;;4.07;2.03;;;11.00;54.80;;;;;;20162;6862;118220;-71
2023/03/26 08:08:12;;;;;;;5.13;2.50;;;10.90;54.30;;;;;;20904;6733;120151;-70
2023/03/26 08:11:08;;;;;;;5.60;4.77;;;10.70;54.70;;;;;;20910;6733;117205;-71
2023/03/26 08:13:55;;;;;;;4.43;1.67;;;10.50;55.00;;;;;;20905;6733;117219;-70
2023/03/26 08:17:00;;;;;;;9.43;2.53;;;10.70;56.20;;;;;;20662;6733;277415;-70
2023/03/26 08:19:56;;;;;;;8.60;2.47;;;10.70;55.90;;;;;;19711;6791;350265;-70
2023/03/26 08:22:30;;;;;;;3.80;2.10;;;11.30;55.00;;;;;;20863;6740;119104;-72
2023/03/26 08:25:10;;;;;;;5.78;2.30;;;11.40;54.40;;;;;;20489;6763;295938;-71
2023/03/26 08:28:11;;;;;;;3.90;2.20;;;11.50;54.20;;;;;;20852;6743;117631;-70
2023/03/26 08:30:47;;;;;;;6.50;2.30;;;11.50;54.00;;;;;;20857;6743;117382;-70
2023/03/26 08:33:22;;;;;;;2.50;1.87;;;11.40;54.10;;;;;;20894;6733;117463;-70
2023/03/26 08:35:58;;;;;;;4.45;2.50;;;11.20;54.10;;;;;;20424;6748;280068;-69
2023/03/26 08:38:38;;;;;;;3.58;2.40;;;11.70;54.60;;;;;;20611;6750;306378;-73
2023/03/26 08:41:15;;;;;;;2.27;1.83;;;11.80;55.30;;;;;;20839;6748;117140;-70
2023/03/26 08:44:12;;;;;;;4.27;2.03;;;11.70;54.30;;;;;;20843;6748;117244;-71
2023/03/26 08:46:51;;;;;;;4.17;2.40;;;11.70;55.20;;;;;;20668;6740;281497;-67
2023/03/26 08:49:36;;;;;;;5.60;2.30;;;11.70;55.10;;;;;;20888;6733;117894;-69
2023/03/26 08:52:32;;;;;;;5.00;2.70;;;11.70;54.90;;;;;;20667;6733;329806;-71
2023/03/26 08:55:28;;;;;;;3.62;2.80;;;11.90;55.00;;;;;;20548;6733;348231;-68
2023/03/26 08:58:07;;;;;;;5.93;5.10;;;12.20;54.90;;;;;;20887;6740;117777;-68
2023/03/26 09:00:56;;;;;;;8.90;8.00;;;12.00;54.80;;;;;;20014;6804;282426;-68
2023/03/26 09:03:45;;;;;;;10.80;6.55;;;12.00;55.20;;;;;;20683;6733;328025;-68
2023/03/26 09:06:34;;;;;;;5.60;3.90;;;12.30;55.00;;;;;;20667;6733;336911;-68
2023/03/26 09:20:17;;;;;;;8.60;5.47;;;13.10;53.20;;;;;;21248;6474;87403;-67
2023/03/26 09:22:59;;;;;;;4.73;4.07;;;12.80;53.40;;;;;;20954;6762;117596;-66
2023/03/26 09:25:25;;;;;;;4.87;3.53;;;12.40;54.10;;;;;;20648;6760;336054;-67
2023/03/26 09:27:57;;;;;;;3.47;2.63;;;12.40;54.70;;;;;;20774;6821;123508;-68
2023/03/26 09:30:25;;;;;;;4.10;3.10;;;12.30;54.70;;;;;;20496;6831;337515;-66
2023/03/26 09:33:06;;;;;;;6.85;6.35;;;12.40;55.30;;;;;;19860;6817;310572;-68
2023/03/26 09:35:59;;;;;;;8.53;6.83;;;12.70;55.10;;;;;;20761;6817;117174;-67
2023/03/26 09:38:32;;;;;;;9.53;8.13;;;12.60;55.10;;;;;;20785;6814;120753;-70
2023/03/26 09:40:57;;;;;;;10.30;9.30;;;12.40;55.60;;;;;;20620;6804;277999;-72
2023/03/26 09:43:47;;;;;;;8.23;6.90;;;12.50;55.70;;;;;;20751;6829;118394;-69
2023/03/26 09:46:15;;;;;;;4.80;4.22;;;12.50;55.70;;;;;;20603;6817;307576;-75
2023/03/26 09:48:48;;;;;;;3.78;3.37;;;13.20;55.90;;;;;;20433;6816;310340;-70
2023/03/26 09:51:39;;;;;;;4.53;3.03;;;13.10;55.80;;;;;;20759;6816;117713;-70
2023/03/26 09:54:16;;;;;;;4.00;3.03;;;13.40;55.40;;;;;;20555;6814;305802;-71
2023/03/26 09:56:57;;;;;;;5.73;3.60;;;13.40;55.40;;;;;;20100;6817;123660;-70
2023/03/26 09:59:37;;;;;;;3.03;2.70;;;13.30;55.70;;;;;;20703;6827;123832;-68
2023/03/26 10:02:32;;;;;;;3.63;2.53;;;13.20;55.60;;;;;;20743;6807;122913;-68
2023/03/26 10:05:21;;;;;;;4.23;2.37;;;13.10;56.20;;;;;;20741;6834;117262;-67
2023/03/26 10:08:03;;;;;;;3.53;3.30;;;13.10;56.70;;;;;;20756;6830;117068;-68
2023/03/26 10:10:29;;;;;;;3.87;3.43;;;13.00;56.90;;;;;;20731;6824;121856;-68
2023/03/26 10:13:07;;;;;;;2.92;2.20;;;13.00;57.30;;;;;;20556;6824;309817;-69
2023/03/26 10:15:33;;;;;;;3.20;2.90;;;13.20;55.70;;;;;;20699;6840;118457;-69
2023/03/26 10:18:13;;;;;;;2.60;2.10;;;13.40;55.40;;;;;;20685;6840;119971;-68
2023/03/26 10:20:58;;;;;;;2.53;2.25;;;13.30;55.40;;;;;;20424;6840;308782;-69
2023/03/26 10:23:55;;;;;;;2.10;2.00;;;13.40;53.70;;;;;;20436;6840;299334;-68
2023/03/26 10:26:39;;;;;;;2.30;1.57;;;13.80;52.40;;;;;;20643;6830;122200;-68
2023/03/26 10:29:31;;;;;;;1.58;1.48;;;13.70;52.30;;;;;;20498;6829;295256;-67
2023/03/26 10:32:16;;;;;;;1.60;1.50;;;13.60;51.60;;;;;;20523;6821;294596;-67
2023/03/26 10:35:06;;;;;;;1.42;1.33;;;13.80;50.20;;;;;;20562;6821;307391;-68
2023/03/26 10:37:48;;;;;;;1.92;1.60;;;13.80;49.60;;;;;;20571;6822;336350;-68
2023/03/26 10:40:41;;;;;;;2.00;1.47;;;13.90;49.30;;;;;;20782;6822;119148;-70
2023/03/26 10:43:28;;;;;;;1.23;1.10;;;13.70;50.50;;;;;;20766;6823;117698;-68
2023/03/26 10:46:26;;;;;;;0.80;0.80;;;13.60;51.90;;;;;;20763;6823;117179;-69
2023/03/26 10:49:12;;;;;;;0.97;0.97;;;13.50;52.60;;;;;;20793;6823;118222;-69
2023/03/26 10:51:57;;;;;;;1.30;1.20;;;13.50;53.40;;;;;;20791;6823;119507;-70
2023/03/26 10:54:55;;;;;;;2.12;1.70;;;13.50;54.00;;;;;;20521;6823;306359;-69
2023/03/26 10:57:34;;;;;;;3.27;1.80;;;13.90;52.50;;;;;;20564;6823;276428;-69
2023/03/26 10:59:59;;;;;;;3.30;2.62;;;14.50;52.90;;;;;;19945;6823;307154;-70
2023/03/26 11:02:25;;;;;;;2.00;1.45;;;15.00;52.10;;;;;;20700;6823;118376;-69
2023/03/26 11:05:00;;;;;;;1.87;1.77;;;15.10;51.60;;;;;;20549;6823;299507;-72
2023/03/26 11:07:46;;;;;;;1.30;1.20;;;15.20;48.80;;;;;;20506;6823;277314;-70
2023/03/26 11:10:11;;;;;;;1.48;1.00;;;15.30;48.20;;;;;;19828;6823;309292;-69
2023/03/26 11:12:40;;;;;;;0.87;0.87;;;15.40;48.00;;;;;;20761;6823;118805;-72
2023/03/26 11:15:06;;;;;;;0.80;0.80;;;15.30;48.80;;;;;;20779;6823;117224;-71
2023/03/26 11:17:31;;;;;;;0.95;0.82;;;15.00;49.80;;;;;;20515;6823;311904;-70
2023/03/26 11:20:10;;;;;;;0.90;0.90;;;15.10;49.00;;;;;;20784;6823;117648;-71
2023/03/26 11:22:52;;;;;;;0.97;0.90;;;15.20;50.00;;;;;;20505;6833;307870;-70
2023/03/26 11:25:38;;;;;;;1.00;0.90;;;15.40;49.40;;;;;;20768;6818;117028;-72
2023/03/26 11:28:40;;;;;;;1.33;0.75;;;15.50;49.80;;;;;;20502;6833;306160;-73
2023/03/26 11:31:25;;;;;;;1.10;1.10;;;15.70;48.20;;;;;;20799;6818;117619;-75
2023/03/26 11:33:51;;;;;;;0.90;0.70;;;15.70;48.30;;;;;;20526;6836;276725;-74
2023/03/26 11:36:17;;;;;;;0.85;0.85;;;15.80;48.30;;;;;;20697;6838;118075;-74
2023/03/26 11:38:47;;;;;;;0.57;0.50;;;15.80;48.40;;;;;;20772;6818;121504;-73
2023/03/26 11:41:12;;;;;;;0.60;0.60;;;15.70;48.20;;;;;;20571;6816;276835;-71
2023/03/26 11:43:38;;;;;;;0.88;0.73;;;15.80;46.80;;;;;;20665;6835;117134;-73
2023/03/26 11:46:04;;;;;;;0.52;0.52;;;15.90;47.50;;;;;;20721;6837;117335;-72
2023/03/26 11:48:36;;;;;;;0.50;0.50;;;15.70;47.50;;;;;;20734;6817;117510;-71
2023/03/26 11:51:06;;;;;;;2.20;0.73;;;15.80;46.30;;;;;;20560;6817;285833;-71
2023/03/26 11:53:33;;;;;;;0.50;0.50;;;16.00;45.90;;;;;;20513;6836;337633;-72
2023/03/26 11:56:18;;;;;;;1.07;0.80;;;16.10;45.30;;;;;;20727;6837;117240;-73
2023/03/26 11:58:50;;;;;;;0.90;0.77;;;16.20;45.70;;;;;;20575;6817;307140;-70
2023/03/26 12:01:28;;;;;;;0.87;0.83;;;16.20;45.70;;;;;;20786;6817;117025;-72
2023/03/26 12:03:53;;;;;;;1.27;0.80;;;16.20;46.40;;;;;;20731;6836;117099;-73
2023/03/26 12:06:22;;;;;;;0.60;0.60;;;15.90;46.70;;;;;;20719;6832;117479;-74
2023/03/26 12:08:47;;;;;;;0.90;0.90;;;15.70;47.10;;;;;;20583;6817;342042;-70
2023/03/26 12:11:14;;;;;;;0.70;0.70;;;16.20;45.00;;;;;;20543;6833;276964;-69
2023/03/26 12:13:40;;;;;;;1.30;1.20;;;16.20;44.90;;;;;;20511;6832;342285;-69
2023/03/26 12:16:05;;;;;;;1.02;0.80;;;16.50;43.80;;;;;;20541;6817;306260;-70
2023/03/26 12:18:31;;;;;;;1.50;0.80;;;16.90;42.80;;;;;;20517;6833;277657;-70
2023/03/26 12:21:00;;;;;;;0.70;0.70;;;16.80;42.60;;;;;;20753;6832;123233;-71
2023/03/26 12:23:55;;;;;;;0.93;0.80;;;16.70;43.60;;;;;;20789;6818;116242;-71
2023/03/26 12:26:32;;;;;;;1.03;0.70;;;16.40;44.40;;;;;;20525;6833;277734;-68
2023/03/26 12:28:56;;;;;;;1.50;0.90;;;16.50;41.80;;;;;;20582;6818;306498;-71
2023/03/26 12:31:21;;;;;;;1.65;0.80;;;16.80;41.80;;;;;;20535;6836;278626;-70
2023/03/26 12:34:11;;;;;;;1.63;0.77;;;17.00;40.70;;;;;;20757;6832;117196;-70
2023/03/26 12:36:37;;;;;;;1.80;0.90;;;17.10;39.10;;;;;;20403;6818;277055;-70
2023/03/26 12:39:02;;;;;;;0.80;0.70;;;17.00;39.00;;;;;;20752;6833;117258;-70
2023/03/26 12:41:34;;;;;;;1.08;0.70;;;17.00;40.60;;;;;;20475;6832;336399;-69
2023/03/26 12:44:29;;;;;;;1.73;0.90;;;17.10;39.10;;;;;;20794;6818;117671;-69
2023/03/26 12:47:14;;;;;;;0.80;0.80;;;17.10;40.30;;;;;;20534;6833;307460;-70
2023/03/26 12:49:40;;;;;;;0.63;0.60;;;17.30;39.20;;;;;;20755;6832;124033;-68
2023/03/26 12:52:22;;;;;;;1.20;0.80;;;17.40;40.30;;;;;;20605;6818;306628;-68
2023/03/26 12:54:59;;;;;;;1.23;0.90;;;17.50;37.20;;;;;;20538;6832;305808;-68
2023/03/26 12:57:25;;;;;;;1.17;1.08;;;17.70;37.40;;;;;;20524;6832;336773;-67
2023/03/26 13:00:30;;;;;;;1.17;0.83;;;17.90;35.00;;;;;;20789;6817;121134;-67
2023/03/26 13:02:58;;;;;;;1.30;0.88;;;17.70;36.50;;;;;;20543;6832;336166;-71
2023/03/26 13:05:50;;;;;;;1.00;0.70;;;17.70;34.10;;;;;;20570;6817;311626;-70
2023/03/26 13:08:22;;;;;;;1.00;0.53;;;17.80;34.10;;;;;;20793;6817;122181;-69
2023/03/26 13:11:21;;;;;;;1.13;0.90;;;17.50;35.60;;;;;;20805;6817;117415;-70
2023/03/26 13:13:47;;;;;;;0.53;0.50;;;17.20;36.40;;;;;;20792;6817;123185;-72
2023/03/26 13:16:33;;;;;;;1.73;0.80;;;16.80;37.40;;;;;;20554;6817;277888;-68
2023/03/26 13:19:09;;;;;;;0.93;0.90;;;16.80;36.80;;;;;;20804;6817;120747;-70
2023/03/26 13:22:01;;;;;;;0.88;0.70;;;16.80;36.50;;;;;;20595;6817;322752;-70
2023/03/26 13:24:47;;;;;;;1.20;0.70;;;16.90;34.00;;;;;;20767;6817;118122;-70
2023/03/26 13:27:35;;;;;;;3.75;1.33;;;16.90;35.60;;;;;;20591;6817;306630;-71
2023/03/26 13:30:21;;;;;;;1.20;0.70;;;17.00;33.80;;;;;;20581;6818;307371;-72
2023/03/26 13:33:26;;;;;;;1.97;0.77;;;17.20;33.60;;;;;;19748;7163;122974;-71
2023/03/26 13:35:55;;;;;;;2.03;1.00;;;17.20;34.80;;;;;;20593;6818;307202;-71
2023/03/26 13:38:40;;;;;;;2.40;0.90;;;17.30;34.50;;;;;;20781;6818;117700;-72
2023/03/26 13:41:18;;;;;;;1.60;1.10;;;17.20;36.20;;;;;;20603;6818;304469;-70
2023/03/26 13:44:00;;;;;;;1.00;0.90;;;17.30;35.70;;;;;;20781;6818;117702;-72
2023/03/26 13:46:42;;;;;;;1.20;0.87;;;17.20;38.30;;;;;;20790;6818;118296;-72